createdAt,value
2023-01-15T00:05:03.684Z,80.47
2023-01-15T00:10:07.281Z,80.38
2023-01-15T00:15:10.407Z,80.35
2023-01-15T00:20:13.563Z,80.08
2023-01-15T00:25:34.447Z,80.32
2023-01-15T00:30:41.747Z,80.73
2023-01-15T00:35:44.739Z,80.48
2023-01-15T00:40:53.214Z,80.70
2023-01-15T00:45:55.916Z,80.64
2023-01-15T00:50:58.823Z,80.71
2023-01-15T00:56:01.626Z,80.77
2023-01-15T01:01:04.752Z,80.78
2023-01-15T01:06:08.086Z,80.30
2023-01-15T01:11:12.345Z,80.55
2023-01-15T01:16:31.030Z,80.06
2023-01-15T01:21:33.886Z,80.36
2023-01-15T01:26:36.512Z,79.96
2023-01-15T01:31:39.524Z,80.17
2023-01-15T01:36:44.287Z,80.30
2023-01-15T01:41:47.898Z,80.24
2023-01-15T01:46:51.057Z,80.43
2023-01-15T01:51:59.303Z,80.74
2023-01-15T01:57:02.963Z,80.49
2023-01-15T02:02:06.643Z,80.19
2023-01-15T02:07:09.364Z,80.18
2023-01-15T02:12:29.298Z,80.29
2023-01-15T02:18:10.901Z,80.37
2023-01-15T02:23:28.724Z,80.80
2023-01-15T02:28:36.019Z,80.17
2023-01-15T02:33:42.105Z,80.35
2023-01-15T02:38:48.473Z,79.89
2023-01-15T02:43:55.124Z,80.20
2023-01-15T02:49:01.280Z,79.86
2023-01-15T02:54:12.946Z,79.92
2023-01-15T02:59:23.839Z,79.80
2023-01-15T03:04:45.461Z,79.93
2023-01-15T03:09:48.695Z,79.30
2023-01-15T03:15:11.760Z,79.88
2023-01-15T03:20:24.722Z,79.55
2023-01-15T03:25:31.509Z,79.53
2023-01-15T03:30:34.421Z,79.99
2023-01-15T03:35:58.953Z,79.49
2023-01-15T03:41:23.369Z,79.38
2023-01-15T03:46:50.729Z,79.73
2023-01-15T03:52:08.105Z,79.09
2023-01-15T03:57:20.389Z,78.85
2023-01-15T04:02:25.276Z,78.54
2023-01-15T04:07:28.814Z,77.87
2023-01-15T04:12:34.365Z,77.93
2023-01-15T04:17:38.974Z,77.76
2023-01-15T04:22:41.959Z,77.19
2023-01-15T04:27:44.714Z,77.26
2023-01-15T04:32:51.234Z,76.84
2023-01-15T04:37:58.108Z,76.76
2023-01-15T04:43:19.293Z,76.37
2023-01-15T04:48:22.047Z,76.14
2023-01-15T04:53:26.532Z,75.77
2023-01-15T04:58:29.463Z,75.66
2023-01-15T05:03:32.421Z,75.84
2023-01-15T05:08:35.276Z,75.84
2023-01-15T05:13:38.163Z,75.34
2023-01-15T05:18:41.927Z,75.31
2023-01-15T05:23:44.865Z,75.16
2023-01-15T05:28:47.984Z,75.19
2023-01-15T05:33:51.244Z,75.13
2023-01-15T05:38:54.798Z,74.78
2023-01-15T05:44:01.206Z,74.25
2023-01-15T05:49:08.514Z,74.16
2023-01-15T05:54:25.879Z,74.29
2023-01-15T05:59:30.534Z,73.87
2023-01-15T06:04:33.221Z,74.12
2023-01-15T06:09:35.936Z,73.69
2023-01-15T06:14:38.638Z,73.92
2023-01-15T06:19:41.430Z,74.26
2023-01-15T06:24:44.066Z,74.01
2023-01-15T06:29:46.735Z,73.73
2023-01-15T06:34:50.489Z,73.68
2023-01-15T06:39:53.201Z,73.89
2023-01-15T06:45:14.337Z,73.83
2023-01-15T06:50:17.334Z,73.60
2023-01-15T06:55:20.103Z,73.08
2023-01-15T07:00:22.821Z,72.81
2023-01-15T07:05:25.528Z,73.15
2023-01-15T07:10:28.226Z,72.91
2023-01-15T07:15:31.559Z,72.15
2023-01-15T07:20:34.283Z,71.71
2023-01-15T07:25:37.925Z,71.73
2023-01-15T07:30:40.620Z,72.13
2023-01-15T07:35:43.349Z,72.63
2023-01-15T07:41:06.045Z,71.92
2023-01-15T07:46:29.587Z,72.11
2023-01-15T07:51:32.217Z,72.05
2023-01-15T07:56:34.877Z,72.16
2023-01-15T08:01:37.700Z,72.32
2023-01-15T08:06:40.502Z,72.75
2023-01-15T08:12:01.699Z,73.22
2023-01-15T08:17:07.119Z,73.10
2023-01-15T08:22:11.153Z,72.96
2023-01-15T08:27:14.369Z,73.07
2023-01-15T08:32:17.116Z,73.28
2023-01-15T08:37:19.760Z,72.87
2023-01-15T08:42:23.012Z,73.20
2023-01-15T08:47:25.711Z,73.43
2023-01-15T08:52:28.541Z,73.66
2023-01-15T08:57:31.294Z,73.97
2023-01-15T09:02:33.984Z,73.86
2023-01-15T09:07:37.636Z,73.64
2023-01-15T09:12:40.369Z,73.94
2023-01-15T09:17:43.330Z,74.12
2023-01-15T09:22:46.431Z,74.06
2023-01-15T09:27:50.323Z,74.44
2023-01-15T09:32:53.013Z,74.43
2023-01-15T09:37:55.836Z,74.33
2023-01-15T09:43:05.695Z,74.99
2023-01-15T09:48:47.360Z,74.97
2023-01-15T09:53:51.557Z,74.61
2023-01-15T09:58:55.082Z,75.14
2023-01-15T10:04:07.247Z,75.21
2023-01-15T10:09:17.908Z,75.50
2023-01-15T10:14:43.703Z,75.75
2023-01-15T10:19:46.405Z,75.75
2023-01-15T10:24:58.393Z,75.82
2023-01-15T10:30:20.312Z,75.67
2023-01-15T10:35:35.135Z,75.89
2023-01-15T10:40:52.039Z,76.53
2023-01-15T10:45:58.095Z,76.65
2023-01-15T10:51:04.798Z,76.73
2023-01-15T10:56:30.399Z,76.74
2023-01-15T11:01:33.247Z,77.16
2023-01-15T11:06:36.094Z,77.12
2023-01-15T11:12:00.636Z,77.21
2023-01-15T11:17:09.686Z,77.23
2023-01-15T11:22:15.272Z,77.54
2023-01-15T11:27:20.896Z,77.50
2023-01-15T11:32:36.650Z,77.24
2023-01-15T11:37:39.497Z,77.50
2023-01-15T11:43:08.572Z,77.50
2023-01-15T11:48:41.518Z,77.49
2023-01-15T11:53:52.408Z,77.24
2023-01-15T11:58:57.042Z,77.22
2023-01-15T12:04:02.217Z,77.43
2023-01-15T12:09:14.772Z,77.70
2023-01-15T12:14:45.870Z,77.69
2023-01-15T12:20:13.070Z,77.72
2023-01-15T12:25:18.540Z,77.53
2023-01-15T12:30:32.988Z,77.62
2023-01-15T12:35:42.233Z,77.87
2023-01-15T12:40:49.275Z,77.80
2023-01-15T12:45:54.475Z,78.01
2023-01-15T12:51:04.871Z,78.07
2023-01-15T12:56:10.546Z,78.20
2023-01-15T13:01:31.506Z,77.90
2023-01-15T13:06:35.708Z,78.06
2023-01-15T13:11:38.441Z,77.87
2023-01-15T13:16:58.369Z,77.86
2023-01-15T13:22:06.983Z,78.11
2023-01-15T13:27:47.577Z,77.85
2023-01-15T13:33:01.665Z,77.73
2023-01-15T13:38:06.361Z,77.49
2023-01-15T13:43:40.809Z,77.46
2023-01-15T13:48:48.187Z,77.21
2023-01-15T13:53:51.201Z,77.91
2023-01-15T13:58:56.658Z,78.05
2023-01-15T14:04:12.728Z,78.09
2023-01-15T14:09:24.336Z,78.15
2023-01-15T14:15:04.312Z,78.04
2023-01-15T14:20:44.900Z,78.25
2023-01-15T14:26:05.754Z,77.97
2023-01-15T14:31:39.394Z,78.08
2023-01-15T14:36:57.806Z,78.43
2023-01-15T14:42:26.286Z,77.83
2023-01-15T14:47:54.907Z,77.95
2023-01-15T14:53:45.278Z,77.43
2023-01-15T14:59:05.334Z,77.65
2023-01-15T15:04:45.818Z,77.17
2023-01-15T15:10:14.057Z,77.40
2023-01-15T15:15:25.991Z,77.63
2023-01-15T15:20:37.791Z,77.40
2023-01-15T15:25:40.626Z,77.97
2023-01-15T15:30:45.705Z,77.60
2023-01-15T15:35:55.105Z,77.60
2023-01-15T15:41:02.409Z,78.06
2023-01-15T15:46:24.179Z,77.71
2023-01-15T15:51:36.185Z,77.17
2023-01-15T15:56:41.317Z,77.53
2023-01-15T16:01:45.243Z,77.96
2023-01-15T16:06:49.266Z,77.73
2023-01-15T16:11:53.165Z,77.71
2023-01-15T16:16:55.875Z,78.12
2023-01-15T16:21:58.910Z,78.09
2023-01-15T16:27:13.405Z,78.59
2023-01-15T16:32:24.716Z,78.57
2023-01-15T16:37:32.620Z,78.31
2023-01-15T16:42:38.025Z,78.44
2023-01-15T16:47:40.874Z,78.51
2023-01-15T16:52:52.482Z,78.84
2023-01-15T16:58:14.990Z,78.60
2023-01-15T17:03:23.151Z,78.58
2023-01-15T17:08:40.305Z,78.78
2023-01-15T17:13:43.268Z,78.21
2023-01-15T17:18:46.832Z,78.33
2023-01-15T17:23:51.289Z,78.49
2023-01-15T17:28:53.997Z,78.67
2023-01-15T17:34:01.433Z,78.29
2023-01-15T17:39:04.553Z,78.35
2023-01-15T17:44:07.330Z,78.64
2023-01-15T17:49:10.060Z,78.72
2023-01-15T17:54:32.660Z,78.47
2023-01-15T17:59:53.673Z,78.59
2023-01-15T18:05:31.733Z,78.25
2023-01-15T18:10:34.925Z,78.38
2023-01-15T18:15:37.623Z,78.02
2023-01-15T18:20:40.461Z,78.24
2023-01-15T18:25:46.496Z,78.27
2023-01-15T18:30:49.625Z,78.24
2023-01-15T18:36:02.566Z,78.23
2023-01-15T18:41:32.465Z,77.90
2023-01-15T18:46:43.901Z,77.79
2023-01-15T18:52:06.684Z,78.12
2023-01-15T18:57:09.302Z,77.96
2023-01-15T19:02:13.938Z,78.02
2023-01-15T19:07:17.366Z,77.96
2023-01-15T19:12:20.472Z,77.87
2023-01-15T19:17:43.169Z,78.32
2023-01-15T19:23:05.301Z,77.71
2023-01-15T19:28:09.781Z,77.76
2023-01-15T19:33:12.417Z,77.95
2023-01-15T19:38:16.887Z,77.39
2023-01-15T19:43:37.938Z,77.34
2023-01-15T19:48:59.027Z,77.68
2023-01-15T19:54:04.413Z,77.72
2023-01-15T19:59:08.390Z,77.87
2023-01-15T20:04:11.002Z,77.78
2023-01-15T20:09:15.244Z,77.97
2023-01-15T20:14:17.956Z,77.57
2023-01-15T20:19:20.632Z,77.39
2023-01-15T20:24:23.467Z,77.16
2023-01-15T20:29:26.272Z,77.35
2023-01-15T20:34:31.136Z,77.49
2023-01-15T20:39:34.395Z,77.30
2023-01-15T20:44:54.996Z,77.39
2023-01-15T20:49:57.715Z,77.58
2023-01-15T20:55:00.564Z,77.43
2023-01-15T21:00:05.339Z,77.20
2023-01-15T21:05:08.654Z,77.04
2023-01-15T21:10:14.619Z,76.23
2023-01-15T21:15:17.510Z,76.66
2023-01-15T21:20:20.459Z,76.46
2023-01-15T21:25:23.160Z,76.20
2023-01-15T21:30:26.145Z,76.00
2023-01-15T21:35:28.976Z,75.80
2023-01-15T21:40:31.617Z,76.46
2023-01-15T21:45:34.333Z,76.79
2023-01-15T21:50:37.696Z,76.32
2023-01-15T21:55:40.705Z,76.59
2023-01-15T22:00:43.474Z,76.13
2023-01-15T22:05:46.287Z,76.69
2023-01-15T22:10:50.225Z,76.46
2023-01-15T22:15:56.095Z,76.35
2023-01-15T22:21:03.192Z,76.28
2023-01-15T22:26:05.975Z,76.08
2023-01-15T22:31:08.663Z,76.25
2023-01-15T22:36:14.386Z,76.00
2023-01-15T22:41:37.972Z,75.40
2023-01-15T22:46:40.721Z,75.75
2023-01-15T22:51:43.914Z,75.43
2023-01-15T22:56:47.348Z,75.77
2023-01-15T23:01:50.121Z,75.83
2023-01-15T23:06:53.363Z,75.61
2023-01-15T23:11:56.139Z,75.36
2023-01-15T23:16:58.899Z,74.85
2023-01-15T23:22:01.682Z,75.50
2023-01-15T23:27:04.473Z,75.19
2023-01-15T23:32:07.172Z,75.10
2023-01-15T23:37:09.922Z,75.16
2023-01-15T23:42:31.088Z,75.04
2023-01-15T23:47:34.010Z,74.66
2023-01-15T23:52:36.703Z,74.63
2023-01-15T23:57:39.389Z,74.94
